sensor_id;sensor_type;location;lat;lon;timestamp;temperature;humidity
6291;DHT22;3178;48.730;8.990;2022-12-10T00:01:06;1.10;99.90
6291;DHT22;3178;48.730;8.990;2022-12-10T00:03:32;1.20;99.90
6291;DHT22;3178;48.730;8.990;2022-12-10T00:06:02;1.10;99.90
6291;DHT22;3178;48.730;8.990;2022-12-10T00:08:28;1.10;99.90
6291;DHT22;3178;48.730;8.990;2022-12-10T00:10:54;1.10;99.90
6291;DHT22;3178;48.730;8.990;2022-12-10T00:13:19;1.10;99.90
6291;DHT22;3178;48.730;8.990;2022-12-10T00:15:45;1.10;99.90
6291;DHT22;3178;48.730;8.990;2022-12-10T00:18:10;1.10;99.90
6291;DHT22;3178;48.730;8.990;2022-12-10T00:20:36;1.10;99.90
6291;DHT22;3178;48.730;8.990;2022-12-10T00:23:02;1.10;99.90
6291;DHT22;3178;48.730;8.990;2022-12-10T00:25:28;1.10;99.90
6291;DHT22;3178;48.730;8.990;2022-12-10T00:27:54;1.10;99.90
6291;DHT22;3178;48.730;8.990;2022-12-10T00:30:20;1.10;99.90
6291;DHT22;3178;48.730;8.990;2022-12-10T00:32:46;1.10;99.90
6291;DHT22;3178;48.730;8.990;2022-12-10T00:35:11;1.10;99.90
6291;DHT22;3178;48.730;8.990;2022-12-10T00:37:37;1.10;99.90
6291;DHT22;3178;48.730;8.990;2022-12-10T00:40:03;1.10;99.90
6291;DHT22;3178;48.730;8.990;2022-12-10T00:42:28;1.10;99.90
6291;DHT22;3178;48.730;8.990;2022-12-10T00:44:54;1.10;99.90
6291;DHT22;3178;48.730;8.990;2022-12-10T00:47:19;1.10;99.90
6291;DHT22;3178;48.730;8.990;2022-12-10T00:49:45;1.10;99.90
6291;DHT22;3178;48.730;8.990;2022-12-10T00:52:10;1.10;99.90
6291;DHT22;3178;48.730;8.990;2022-12-10T00:54:36;1.10;99.90
6291;DHT22;3178;48.730;8.990;2022-12-10T00:57:02;1.10;99.90
6291;DHT22;3178;48.730;8.990;2022-12-10T00:59:27;1.10;99.90
6291;DHT22;3178;48.730;8.990;2022-12-10T01:01:53;1.10;99.90
6291;DHT22;3178;48.730;8.990;2022-12-10T01:04:18;1.10;99.90
6291;DHT22;3178;48.730;8.990;2022-12-10T01:06:49;1.10;99.90
6291;DHT22;3178;48.730;8.990;2022-12-10T01:09:18;1.10;99.90
6291;DHT22;3178;48.730;8.990;2022-12-10T01:11:46;1.10;99.90
6291;DHT22;3178;48.730;8.990;2022-12-10T01:14:14;1.10;99.90
6291;DHT22;3178;48.730;8.990;2022-12-10T01:16:41;1.10;99.90
6291;DHT22;3178;48.730;8.990;2022-12-10T01:19:06;1.10;99.90
6291;DHT22;3178;48.730;8.990;2022-12-10T01:21:32;1.10;99.90
6291;DHT22;3178;48.730;8.990;2022-12-10T01:23:58;1.10;99.90
6291;DHT22;3178;48.730;8.990;2022-12-10T01:26:26;1.10;99.90
6291;DHT22;3178;48.730;8.990;2022-12-10T01:28:53;1.10;99.90
6291;DHT22;3178;48.730;8.990;2022-12-10T01:31:20;1.10;99.90
6291;DHT22;3178;48.730;8.990;2022-12-10T01:33:46;1.20;99.90
6291;DHT22;3178;48.730;8.990;2022-12-10T01:36:18;1.20;99.90
6291;DHT22;3178;48.730;8.990;2022-12-10T01:38:45;1.20;99.90
6291;DHT22;3178;48.730;8.990;2022-12-10T01:41:20;1.20;99.90
6291;DHT22;3178;48.730;8.990;2022-12-10T01:43:59;1.20;99.90
6291;DHT22;3178;48.730;8.990;2022-12-10T01:46:30;1.20;99.90
6291;DHT22;3178;48.730;8.990;2022-12-10T01:48:58;1.10;99.90
6291;DHT22;3178;48.730;8.990;2022-12-10T01:51:25;1.10;99.90
6291;DHT22;3178;48.730;8.990;2022-12-10T01:53:51;1.10;99.90
6291;DHT22;3178;48.730;8.990;2022-12-10T01:56:19;1.10;99.90
6291;DHT22;3178;48.730;8.990;2022-12-10T01:58:45;1.20;99.90
6291;DHT22;3178;48.730;8.990;2022-12-10T02:04:10;1.20;99.90
6291;DHT22;3178;48.730;8.990;2022-12-10T02:06:45;1.20;99.90
6291;DHT22;3178;48.730;8.990;2022-12-10T02:09:32;1.20;99.90
6291;DHT22;3178;48.730;8.990;2022-12-10T02:12:06;1.10;99.90
6291;DHT22;3178;48.730;8.990;2022-12-10T02:15:12;1.20;99.90
6291;DHT22;3178;48.730;8.990;2022-12-10T02:17:43;1.10;99.90
6291;DHT22;3178;48.730;8.990;2022-12-10T02:20:21;1.10;99.90
6291;DHT22;3178;48.730;8.990;2022-12-10T02:22:51;1.10;99.90
6291;DHT22;3178;48.730;8.990;2022-12-10T02:25:22;1.10;99.90
6291;DHT22;3178;48.730;8.990;2022-12-10T02:27:58;1.20;99.90
6291;DHT22;3178;48.730;8.990;2022-12-10T02:30:27;1.20;99.90
6291;DHT22;3178;48.730;8.990;2022-12-10T02:32:54;1.10;99.90
6291;DHT22;3178;48.730;8.990;2022-12-10T02:35:25;1.20;99.90
6291;DHT22;3178;48.730;8.990;2022-12-10T02:38:01;1.10;99.90
6291;DHT22;3178;48.730;8.990;2022-12-10T02:40:31;1.10;99.90
6291;DHT22;3178;48.730;8.990;2022-12-10T02:42:58;1.10;99.90
6291;DHT22;3178;48.730;8.990;2022-12-10T02:45:27;1.10;99.90
6291;DHT22;3178;48.730;8.990;2022-12-10T02:47:55;1.10;99.90
6291;DHT22;3178;48.730;8.990;2022-12-10T02:50:22;1.10;99.90
6291;DHT22;3178;48.730;8.990;2022-12-10T02:52:47;1.10;99.90
6291;DHT22;3178;48.730;8.990;2022-12-10T02:55:14;1.10;99.90
6291;DHT22;3178;48.730;8.990;2022-12-10T03:00:24;1.10;99.90
6291;DHT22;3178;48.730;8.990;2022-12-10T03:03:16;1.00;99.90
6291;DHT22;3178;48.730;8.990;2022-12-10T03:06:27;1.00;99.90
6291;DHT22;3178;48.730;8.990;2022-12-10T03:09:08;1.00;99.90
6291;DHT22;3178;48.730;8.990;2022-12-10T03:11:34;1.00;99.90
6291;DHT22;3178;48.730;8.990;2022-12-10T03:14:08;1.00;99.90
6291;DHT22;3178;48.730;8.990;2022-12-10T03:16:39;1.00;99.90
6291;DHT22;3178;48.730;8.990;2022-12-10T03:19:11;1.10;99.90
6291;DHT22;3178;48.730;8.990;2022-12-10T03:21:37;1.10;99.90
6291;DHT22;3178;48.730;8.990;2022-12-10T03:24:05;1.10;99.90
6291;DHT22;3178;48.730;8.990;2022-12-10T03:26:31;1.10;99.90
6291;DHT22;3178;48.730;8.990;2022-12-10T03:29:03;1.10;99.90
6291;DHT22;3178;48.730;8.990;2022-12-10T03:31:31;1.10;99.90
6291;DHT22;3178;48.730;8.990;2022-12-10T03:33:58;1.10;99.90
6291;DHT22;3178;48.730;8.990;2022-12-10T03:36:24;1.10;99.90
6291;DHT22;3178;48.730;8.990;2022-12-10T03:38:50;1.10;99.90
6291;DHT22;3178;48.730;8.990;2022-12-10T03:41:16;1.10;99.90
6291;DHT22;3178;48.730;8.990;2022-12-10T03:43:59;1.10;99.90
6291;DHT22;3178;48.730;8.990;2022-12-10T03:46:27;1.20;99.90
6291;DHT22;3178;48.730;8.990;2022-12-10T03:48:53;1.10;99.90
6291;DHT22;3178;48.730;8.990;2022-12-10T03:51:20;1.10;99.90
6291;DHT22;3178;48.730;8.990;2022-12-10T03:53:46;1.10;99.90
6291;DHT22;3178;48.730;8.990;2022-12-10T03:56:11;1.10;99.90
6291;DHT22;3178;48.730;8.990;2022-12-10T03:58:37;1.10;99.90
6291;DHT22;3178;48.730;8.990;2022-12-10T04:01:03;1.10;99.90
6291;DHT22;3178;48.730;8.990;2022-12-10T04:03:29;1.10;99.90
6291;DHT22;3178;48.730;8.990;2022-12-10T04:06:01;1.10;99.90
6291;DHT22;3178;48.730;8.990;2022-12-10T04:08:27;1.10;99.90
6291;DHT22;3178;48.730;8.990;2022-12-10T04:10:52;1.10;99.90
6291;DHT22;3178;48.730;8.990;2022-12-10T04:13:18;1.10;99.90
6291;DHT22;3178;48.730;8.990;2022-12-10T04:16:15;1.10;99.90
6291;DHT22;3178;48.730;8.990;2022-12-10T04:19:04;1.10;99.90
6291;DHT22;3178;48.730;8.990;2022-12-10T04:21:32;1.10;99.90
6291;DHT22;3178;48.730;8.990;2022-12-10T04:24:19;1.10;99.90
6291;DHT22;3178;48.730;8.990;2022-12-10T04:27:07;1.10;99.90
6291;DHT22;3178;48.730;8.990;2022-12-10T04:29:33;1.10;99.90
6291;DHT22;3178;48.730;8.990;2022-12-10T04:31:59;1.10;99.90
6291;DHT22;3178;48.730;8.990;2022-12-10T04:34:25;1.10;99.90
6291;DHT22;3178;48.730;8.990;2022-12-10T04:36:51;1.00;99.90
6291;DHT22;3178;48.730;8.990;2022-12-10T04:39:17;1.00;99.90
6291;DHT22;3178;48.730;8.990;2022-12-10T04:41:45;1.00;99.90
6291;DHT22;3178;48.730;8.990;2022-12-10T04:44:11;1.00;99.90
6291;DHT22;3178;48.730;8.990;2022-12-10T04:46:37;0.90;99.90
6291;DHT22;3178;48.730;8.990;2022-12-10T04:49:04;1.00;99.90
6291;DHT22;3178;48.730;8.990;2022-12-10T04:51:31;1.00;99.90
6291;DHT22;3178;48.730;8.990;2022-12-10T04:53:57;1.00;99.90
6291;DHT22;3178;48.730;8.990;2022-12-10T04:56:23;1.00;99.90
6291;DHT22;3178;48.730;8.990;2022-12-10T04:58:49;1.00;99.90
6291;DHT22;3178;48.730;8.990;2022-12-10T05:01:15;1.00;99.90
6291;DHT22;3178;48.730;8.990;2022-12-10T05:03:41;0.90;99.90
6291;DHT22;3178;48.730;8.990;2022-12-10T05:06:09;0.90;99.90
6291;DHT22;3178;48.730;8.990;2022-12-10T05:08:36;0.90;99.90
6291;DHT22;3178;48.730;8.990;2022-12-10T05:11:04;1.00;99.90
6291;DHT22;3178;48.730;8.990;2022-12-10T05:13:30;1.00;99.90
6291;DHT22;3178;48.730;8.990;2022-12-10T05:15:56;0.90;99.90
6291;DHT22;3178;48.730;8.990;2022-12-10T05:18:22;0.90;99.90
6291;DHT22;3178;48.730;8.990;2022-12-10T05:20:47;0.90;99.90
6291;DHT22;3178;48.730;8.990;2022-12-10T05:23:13;1.00;99.90
6291;DHT22;3178;48.730;8.990;2022-12-10T05:25:59;0.90;99.90
6291;DHT22;3178;48.730;8.990;2022-12-10T05:28:25;1.00;99.90
6291;DHT22;3178;48.730;8.990;2022-12-10T05:30:51;1.00;99.90
6291;DHT22;3178;48.730;8.990;2022-12-10T05:33:16;1.00;99.90
6291;DHT22;3178;48.730;8.990;2022-12-10T05:35:42;1.00;99.90
6291;DHT22;3178;48.730;8.990;2022-12-10T05:38:07;1.00;99.90
6291;DHT22;3178;48.730;8.990;2022-12-10T05:40:36;1.00;99.90
6291;DHT22;3178;48.730;8.990;2022-12-10T05:43:02;1.00;99.90
6291;DHT22;3178;48.730;8.990;2022-12-10T05:45:28;1.00;99.90
6291;DHT22;3178;48.730;8.990;2022-12-10T05:47:54;1.00;99.90
6291;DHT22;3178;48.730;8.990;2022-12-10T05:50:19;1.00;99.90
6291;DHT22;3178;48.730;8.990;2022-12-10T05:52:45;1.00;99.90
6291;DHT22;3178;48.730;8.990;2022-12-10T05:55:10;1.00;99.90
6291;DHT22;3178;48.730;8.990;2022-12-10T05:57:36;1.00;99.90
6291;DHT22;3178;48.730;8.990;2022-12-10T06:00:04;0.90;99.90
6291;DHT22;3178;48.730;8.990;2022-12-10T06:02:32;0.90;99.90
6291;DHT22;3178;48.730;8.990;2022-12-10T06:04:58;0.90;99.90
6291;DHT22;3178;48.730;8.990;2022-12-10T06:07:24;0.90;99.90
6291;DHT22;3178;48.730;8.990;2022-12-10T06:09:49;0.80;99.90
6291;DHT22;3178;48.730;8.990;2022-12-10T06:12:15;0.80;99.90
6291;DHT22;3178;48.730;8.990;2022-12-10T06:14:41;0.80;99.90
6291;DHT22;3178;48.730;8.990;2022-12-10T06:17:06;0.70;99.90
6291;DHT22;3178;48.730;8.990;2022-12-10T06:19:32;0.80;99.90
6291;DHT22;3178;48.730;8.990;2022-12-10T06:21:57;0.70;99.90
6291;DHT22;3178;48.730;8.990;2022-12-10T06:24:24;0.70;99.90
6291;DHT22;3178;48.730;8.990;2022-12-10T06:26:49;0.70;99.90
6291;DHT22;3178;48.730;8.990;2022-12-10T06:29:15;0.70;99.90
6291;DHT22;3178;48.730;8.990;2022-12-10T06:31:40;0.70;99.90
6291;DHT22;3178;48.730;8.990;2022-12-10T06:34:06;0.70;99.90
6291;DHT22;3178;48.730;8.990;2022-12-10T06:36:32;0.70;99.90
6291;DHT22;3178;48.730;8.990;2022-12-10T06:38:58;0.70;99.90
6291;DHT22;3178;48.730;8.990;2022-12-10T06:41:23;0.70;99.90
6291;DHT22;3178;48.730;8.990;2022-12-10T06:43:49;0.70;99.90
6291;DHT22;3178;48.730;8.990;2022-12-10T06:46:17;0.70;99.90
6291;DHT22;3178;48.730;8.990;2022-12-10T06:48:43;0.70;99.90
6291;DHT22;3178;48.730;8.990;2022-12-10T06:51:10;0.70;99.90
6291;DHT22;3178;48.730;8.990;2022-12-10T06:53:37;0.70;99.90
6291;DHT22;3178;48.730;8.990;2022-12-10T06:56:04;0.70;99.90
6291;DHT22;3178;48.730;8.990;2022-12-10T06:58:32;0.70;99.90
6291;DHT22;3178;48.730;8.990;2022-12-10T07:01:20;0.70;99.90
6291;DHT22;3178;48.730;8.990;2022-12-10T07:03:50;0.70;99.90
6291;DHT22;3178;48.730;8.990;2022-12-10T07:06:17;0.70;99.90
6291;DHT22;3178;48.730;8.990;2022-12-10T07:08:42;0.70;99.90
6291;DHT22;3178;48.730;8.990;2022-12-10T07:11:10;0.70;99.90
6291;DHT22;3178;48.730;8.990;2022-12-10T07:13:36;0.80;99.90
6291;DHT22;3178;48.730;8.990;2022-12-10T07:16:03;0.60;99.90
6291;DHT22;3178;48.730;8.990;2022-12-10T07:18:36;0.60;99.90
6291;DHT22;3178;48.730;8.990;2022-12-10T07:21:01;0.70;99.90
6291;DHT22;3178;48.730;8.990;2022-12-10T07:23:27;0.70;99.90
6291;DHT22;3178;48.730;8.990;2022-12-10T07:25:54;0.60;99.90
6291;DHT22;3178;48.730;8.990;2022-12-10T07:28:20;0.60;99.90
6291;DHT22;3178;48.730;8.990;2022-12-10T07:30:45;0.60;99.90
6291;DHT22;3178;48.730;8.990;2022-12-10T07:33:11;0.70;99.90
6291;DHT22;3178;48.730;8.990;2022-12-10T07:35:39;0.70;99.90
6291;DHT22;3178;48.730;8.990;2022-12-10T07:38:05;0.70;99.90
6291;DHT22;3178;48.730;8.990;2022-12-10T07:40:30;0.70;99.90
6291;DHT22;3178;48.730;8.990;2022-12-10T07:42:57;0.60;99.90
6291;DHT22;3178;48.730;8.990;2022-12-10T07:45:23;0.70;99.90
6291;DHT22;3178;48.730;8.990;2022-12-10T07:47:48;0.60;99.90
6291;DHT22;3178;48.730;8.990;2022-12-10T07:50:14;0.70;99.90
6291;DHT22;3178;48.730;8.990;2022-12-10T07:52:39;0.70;99.90
6291;DHT22;3178;48.730;8.990;2022-12-10T07:55:05;0.70;99.90
6291;DHT22;3178;48.730;8.990;2022-12-10T07:57:31;0.70;99.90
6291;DHT22;3178;48.730;8.990;2022-12-10T07:59:56;0.70;99.90
6291;DHT22;3178;48.730;8.990;2022-12-10T08:02:23;0.70;99.90
6291;DHT22;3178;48.730;8.990;2022-12-10T08:04:48;0.70;99.90
6291;DHT22;3178;48.730;8.990;2022-12-10T08:07:14;0.70;99.90
6291;DHT22;3178;48.730;8.990;2022-12-10T08:09:39;0.70;99.90
6291;DHT22;3178;48.730;8.990;2022-12-10T08:12:05;0.80;99.90
6291;DHT22;3178;48.730;8.990;2022-12-10T08:14:31;0.80;99.90
6291;DHT22;3178;48.730;8.990;2022-12-10T08:16:56;0.80;99.90
6291;DHT22;3178;48.730;8.990;2022-12-10T08:19:22;0.90;99.90
6291;DHT22;3178;48.730;8.990;2022-12-10T08:21:47;0.90;99.90
6291;DHT22;3178;48.730;8.990;2022-12-10T08:24:13;0.90;99.90
6291;DHT22;3178;48.730;8.990;2022-12-10T08:26:38;0.90;99.90
6291;DHT22;3178;48.730;8.990;2022-12-10T08:29:04;0.90;99.90
6291;DHT22;3178;48.730;8.990;2022-12-10T08:31:29;0.80;99.90
6291;DHT22;3178;48.730;8.990;2022-12-10T08:33:55;0.80;99.90
6291;DHT22;3178;48.730;8.990;2022-12-10T08:36:21;0.80;99.90
6291;DHT22;3178;48.730;8.990;2022-12-10T08:38:47;0.90;99.90
6291;DHT22;3178;48.730;8.990;2022-12-10T08:41:20;0.90;99.90
6291;DHT22;3178;48.730;8.990;2022-12-10T08:43:47;0.90;99.90
6291;DHT22;3178;48.730;8.990;2022-12-10T08:46:14;0.90;99.90
6291;DHT22;3178;48.730;8.990;2022-12-10T08:48:40;0.90;99.90
6291;DHT22;3178;48.730;8.990;2022-12-10T08:51:08;0.90;99.90
6291;DHT22;3178;48.730;8.990;2022-12-10T08:53:34;0.90;99.90
6291;DHT22;3178;48.730;8.990;2022-12-10T08:56:00;0.90;99.90
6291;DHT22;3178;48.730;8.990;2022-12-10T08:58:26;0.90;99.90
6291;DHT22;3178;48.730;8.990;2022-12-10T09:00:51;1.00;99.90
6291;DHT22;3178;48.730;8.990;2022-12-10T09:03:17;1.00;99.90
6291;DHT22;3178;48.730;8.990;2022-12-10T09:05:43;1.00;99.90
6291;DHT22;3178;48.730;8.990;2022-12-10T09:08:09;1.00;99.90
6291;DHT22;3178;48.730;8.990;2022-12-10T09:10:36;1.00;99.90
6291;DHT22;3178;48.730;8.990;2022-12-10T09:13:02;1.00;99.90
6291;DHT22;3178;48.730;8.990;2022-12-10T09:15:28;1.00;99.90
6291;DHT22;3178;48.730;8.990;2022-12-10T09:17:53;1.00;99.90
6291;DHT22;3178;48.730;8.990;2022-12-10T09:20:19;1.00;99.90
6291;DHT22;3178;48.730;8.990;2022-12-10T09:22:44;1.00;99.90
6291;DHT22;3178;48.730;8.990;2022-12-10T09:25:10;1.00;99.90
6291;DHT22;3178;48.730;8.990;2022-12-10T09:27:36;1.00;99.90
6291;DHT22;3178;48.730;8.990;2022-12-10T09:30:04;0.90;99.90
6291;DHT22;3178;48.730;8.990;2022-12-10T09:32:30;0.90;99.90
6291;DHT22;3178;48.730;8.990;2022-12-10T09:34:55;1.00;99.90
6291;DHT22;3178;48.730;8.990;2022-12-10T09:37:21;1.00;99.90
6291;DHT22;3178;48.730;8.990;2022-12-10T09:39:46;1.00;99.90
6291;DHT22;3178;48.730;8.990;2022-12-10T09:42:32;1.00;99.90
6291;DHT22;3178;48.730;8.990;2022-12-10T09:45:13;1.10;99.90
6291;DHT22;3178;48.730;8.990;2022-12-10T09:47:52;1.10;99.90
6291;DHT22;3178;48.730;8.990;2022-12-10T09:50:26;1.10;99.90
6291;DHT22;3178;48.730;8.990;2022-12-10T09:52:54;1.10;99.90
6291;DHT22;3178;48.730;8.990;2022-12-10T09:55:38;1.10;99.90
6291;DHT22;3178;48.730;8.990;2022-12-10T09:58:06;1.10;99.90
6291;DHT22;3178;48.730;8.990;2022-12-10T10:00:40;1.10;99.90
6291;DHT22;3178;48.730;8.990;2022-12-10T10:03:14;1.10;99.90
6291;DHT22;3178;48.730;8.990;2022-12-10T10:05:43;1.10;99.90
6291;DHT22;3178;48.730;8.990;2022-12-10T10:08:37;1.10;99.90
6291;DHT22;3178;48.730;8.990;2022-12-10T10:11:04;1.20;99.90
6291;DHT22;3178;48.730;8.990;2022-12-10T10:13:39;1.20;99.90
6291;DHT22;3178;48.730;8.990;2022-12-10T10:18:43;1.20;99.90
6291;DHT22;3178;48.730;8.990;2022-12-10T10:23:45;1.20;99.90
6291;DHT22;3178;48.730;8.990;2022-12-10T10:26:10;1.20;99.90
6291;DHT22;3178;48.730;8.990;2022-12-10T10:28:37;1.30;99.90
6291;DHT22;3178;48.730;8.990;2022-12-10T10:31:18;1.30;99.90
6291;DHT22;3178;48.730;8.990;2022-12-10T10:34:02;1.30;99.90
6291;DHT22;3178;48.730;8.990;2022-12-10T10:36:33;1.30;99.90
6291;DHT22;3178;48.730;8.990;2022-12-10T10:39:23;1.30;99.90
6291;DHT22;3178;48.730;8.990;2022-12-10T10:41:54;1.30;99.90
6291;DHT22;3178;48.730;8.990;2022-12-10T10:44:23;1.30;99.90
6291;DHT22;3178;48.730;8.990;2022-12-10T10:46:52;1.40;99.90
6291;DHT22;3178;48.730;8.990;2022-12-10T10:49:28;1.40;99.90
6291;DHT22;3178;48.730;8.990;2022-12-10T10:51:59;1.50;99.90
6291;DHT22;3178;48.730;8.990;2022-12-10T10:57:03;1.50;99.90
6291;DHT22;3178;48.730;8.990;2022-12-10T10:59:33;1.50;99.90
6291;DHT22;3178;48.730;8.990;2022-12-10T11:02:40;1.50;99.90
6291;DHT22;3178;48.730;8.990;2022-12-10T11:04:57;1.60;99.90
6291;DHT22;3178;48.730;8.990;2022-12-10T11:07:38;1.70;99.90
6291;DHT22;3178;48.730;8.990;2022-12-10T11:10:17;1.70;99.90
6291;DHT22;3178;48.730;8.990;2022-12-10T11:12:46;1.70;99.90
6291;DHT22;3178;48.730;8.990;2022-12-10T11:17:51;1.70;99.90
6291;DHT22;3178;48.730;8.990;2022-12-10T11:20:23;1.80;99.90
6291;DHT22;3178;48.730;8.990;2022-12-10T11:22:55;1.80;99.90
6291;DHT22;3178;48.730;8.990;2022-12-10T11:28:00;1.80;99.90
6291;DHT22;3178;48.730;8.990;2022-12-10T11:30:31;1.80;99.90
6291;DHT22;3178;48.730;8.990;2022-12-10T11:33:01;1.70;99.90
6291;DHT22;3178;48.730;8.990;2022-12-10T11:35:50;1.70;99.90
6291;DHT22;3178;48.730;8.990;2022-12-10T11:38:26;1.80;99.90
6291;DHT22;3178;48.730;8.990;2022-12-10T11:51:31;1.90;99.90
6291;DHT22;3178;48.730;8.990;2022-12-10T11:57:25;1.90;99.90
6291;DHT22;3178;48.730;8.990;2022-12-10T12:00:00;1.90;99.90
6291;DHT22;3178;48.730;8.990;2022-12-10T12:16:39;2.00;99.90
6291;DHT22;3178;48.730;8.990;2022-12-10T12:19:13;2.00;99.90
6291;DHT22;3178;48.730;8.990;2022-12-10T12:21:40;2.00;99.90
6291;DHT22;3178;48.730;8.990;2022-12-10T12:26:45;2.10;99.90
6291;DHT22;3178;48.730;8.990;2022-12-10T12:29:29;2.10;99.90
6291;DHT22;3178;48.730;8.990;2022-12-10T12:32:25;2.10;99.90
6291;DHT22;3178;48.730;8.990;2022-12-10T12:35:03;2.10;99.90
6291;DHT22;3178;48.730;8.990;2022-12-10T12:38:01;2.20;99.90
6291;DHT22;3178;48.730;8.990;2022-12-10T12:41:05;2.10;99.90
6291;DHT22;3178;48.730;8.990;2022-12-10T12:43:58;2.20;99.90
6291;DHT22;3178;48.730;8.990;2022-12-10T12:46:46;2.20;99.90
6291;DHT22;3178;48.730;8.990;2022-12-10T12:49:28;2.20;99.90
6291;DHT22;3178;48.730;8.990;2022-12-10T12:52:02;2.20;99.90
6291;DHT22;3178;48.730;8.990;2022-12-10T12:54:31;2.20;99.90
6291;DHT22;3178;48.730;8.990;2022-12-10T12:59:43;2.20;99.90
6291;DHT22;3178;48.730;8.990;2022-12-10T13:02:23;2.20;99.90
6291;DHT22;3178;48.730;8.990;2022-12-10T13:04:52;2.10;99.90
6291;DHT22;3178;48.730;8.990;2022-12-10T13:09:48;2.10;99.90
6291;DHT22;3178;48.730;8.990;2022-12-10T13:15:19;2.10;99.90
6291;DHT22;3178;48.730;8.990;2022-12-10T13:20:45;2.10;99.90
6291;DHT22;3178;48.730;8.990;2022-12-10T13:28:50;2.00;99.90
6291;DHT22;3178;48.730;8.990;2022-12-10T13:39:11;1.90;99.90
6291;DHT22;3178;48.730;8.990;2022-12-10T13:42:20;1.90;99.90
6291;DHT22;3178;48.730;8.990;2022-12-10T13:44:48;1.80;99.90
6291;DHT22;3178;48.730;8.990;2022-12-10T13:47:52;1.80;99.90
6291;DHT22;3178;48.730;8.990;2022-12-10T13:56:08;1.60;99.90
6291;DHT22;3178;48.730;8.990;2022-12-10T13:59:06;1.60;99.90
6291;DHT22;3178;48.730;8.990;2022-12-10T14:01:56;1.60;99.90
6291;DHT22;3178;48.730;8.990;2022-12-10T14:06:53;1.60;99.90
6291;DHT22;3178;48.730;8.990;2022-12-10T14:09:33;1.50;99.90
6291;DHT22;3178;48.730;8.990;2022-12-10T14:12:27;1.50;99.90
6291;DHT22;3178;48.730;8.990;2022-12-10T14:15:06;1.60;99.90
6291;DHT22;3178;48.730;8.990;2022-12-10T14:17:37;1.50;99.90
6291;DHT22;3178;48.730;8.990;2022-12-10T14:20:06;1.50;99.90
6291;DHT22;3178;48.730;8.990;2022-12-10T14:22:37;1.50;99.90
6291;DHT22;3178;48.730;8.990;2022-12-10T14:25:09;1.50;99.90
6291;DHT22;3178;48.730;8.990;2022-12-10T14:27:36;1.50;99.90
6291;DHT22;3178;48.730;8.990;2022-12-10T14:30:24;1.50;99.90
6291;DHT22;3178;48.730;8.990;2022-12-10T14:32:54;1.50;99.90
6291;DHT22;3178;48.730;8.990;2022-12-10T14:35:27;1.50;99.90
6291;DHT22;3178;48.730;8.990;2022-12-10T14:37:56;1.50;99.90
6291;DHT22;3178;48.730;8.990;2022-12-10T14:40:26;1.50;99.90
6291;DHT22;3178;48.730;8.990;2022-12-10T14:42:59;1.50;99.90
6291;DHT22;3178;48.730;8.990;2022-12-10T14:45:33;1.40;99.90
6291;DHT22;3178;48.730;8.990;2022-12-10T14:48:04;1.40;99.90
6291;DHT22;3178;48.730;8.990;2022-12-10T14:50:32;1.40;99.90
6291;DHT22;3178;48.730;8.990;2022-12-10T14:53:00;1.40;99.90
6291;DHT22;3178;48.730;8.990;2022-12-10T14:55:27;1.40;99.90
6291;DHT22;3178;48.730;8.990;2022-12-10T14:57:57;1.30;99.90
6291;DHT22;3178;48.730;8.990;2022-12-10T15:00:23;1.40;99.90
6291;DHT22;3178;48.730;8.990;2022-12-10T15:02:54;1.30;99.90
6291;DHT22;3178;48.730;8.990;2022-12-10T15:05:30;1.30;99.90
6291;DHT22;3178;48.730;8.990;2022-12-10T15:08:00;1.30;99.90
6291;DHT22;3178;48.730;8.990;2022-12-10T15:10:35;1.30;99.90
6291;DHT22;3178;48.730;8.990;2022-12-10T15:13:02;1.20;99.90
6291;DHT22;3178;48.730;8.990;2022-12-10T15:15:31;1.20;99.90
6291;DHT22;3178;48.730;8.990;2022-12-10T15:20:48;1.20;99.90
6291;DHT22;3178;48.730;8.990;2022-12-10T15:28:37;1.10;99.90
6291;DHT22;3178;48.730;8.990;2022-12-10T15:33:57;1.10;99.90
6291;DHT22;3178;48.730;8.990;2022-12-10T15:36:51;1.00;99.90
6291;DHT22;3178;48.730;8.990;2022-12-10T15:39:29;1.00;99.90
6291;DHT22;3178;48.730;8.990;2022-12-10T15:42:00;1.00;99.90
6291;DHT22;3178;48.730;8.990;2022-12-10T15:44:39;1.00;99.90
6291;DHT22;3178;48.730;8.990;2022-12-10T15:49:39;0.90;99.90
6291;DHT22;3178;48.730;8.990;2022-12-10T15:52:05;0.90;99.90
6291;DHT22;3178;48.730;8.990;2022-12-10T15:54:39;0.90;99.90
6291;DHT22;3178;48.730;8.990;2022-12-10T15:59:52;0.90;99.90
6291;DHT22;3178;48.730;8.990;2022-12-10T16:07:36;0.90;99.90
6291;DHT22;3178;48.730;8.990;2022-12-10T16:10:01;0.80;99.90
6291;DHT22;3178;48.730;8.990;2022-12-10T16:12:27;0.70;99.90
6291;DHT22;3178;48.730;8.990;2022-12-10T16:14:55;0.70;99.90
6291;DHT22;3178;48.730;8.990;2022-12-10T16:17:28;0.70;99.90
6291;DHT22;3178;48.730;8.990;2022-12-10T16:22:40;0.60;99.90
6291;DHT22;3178;48.730;8.990;2022-12-10T16:25:06;0.60;99.90
6291;DHT22;3178;48.730;8.990;2022-12-10T16:27:31;0.50;99.90
6291;DHT22;3178;48.730;8.990;2022-12-10T16:30:18;0.50;99.90
6291;DHT22;3178;48.730;8.990;2022-12-10T16:32:45;0.40;99.90
6291;DHT22;3178;48.730;8.990;2022-12-10T16:35:11;0.40;99.90
6291;DHT22;3178;48.730;8.990;2022-12-10T16:37:48;0.40;99.90
6291;DHT22;3178;48.730;8.990;2022-12-10T16:40:16;0.40;99.90
6291;DHT22;3178;48.730;8.990;2022-12-10T16:42:42;0.30;99.90
6291;DHT22;3178;48.730;8.990;2022-12-10T16:45:35;0.30;99.90
6291;DHT22;3178;48.730;8.990;2022-12-10T16:48:01;0.30;99.90
6291;DHT22;3178;48.730;8.990;2022-12-10T16:50:27;0.20;99.90
6291;DHT22;3178;48.730;8.990;2022-12-10T16:52:54;0.20;99.90
6291;DHT22;3178;48.730;8.990;2022-12-10T16:55:24;0.20;99.90
6291;DHT22;3178;48.730;8.990;2022-12-10T16:57:51;0.20;99.90
6291;DHT22;3178;48.730;8.990;2022-12-10T17:00:22;0.10;99.90
6291;DHT22;3178;48.730;8.990;2022-12-10T17:02:49;0.10;99.90
6291;DHT22;3178;48.730;8.990;2022-12-10T17:05:29;0.10;99.90
6291;DHT22;3178;48.730;8.990;2022-12-10T17:07:56;0.00;99.90
6291;DHT22;3178;48.730;8.990;2022-12-10T17:10:22;0.00;99.90
6291;DHT22;3178;48.730;8.990;2022-12-10T17:13:10;0.10;99.90
6291;DHT22;3178;48.730;8.990;2022-12-10T17:15:37;0.10;99.90
6291;DHT22;3178;48.730;8.990;2022-12-10T17:18:02;0.10;99.90
6291;DHT22;3178;48.730;8.990;2022-12-10T17:20:28;0.10;99.90
6291;DHT22;3178;48.730;8.990;2022-12-10T17:22:54;0.10;99.90
6291;DHT22;3178;48.730;8.990;2022-12-10T17:25:20;0.20;99.90
6291;DHT22;3178;48.730;8.990;2022-12-10T17:27:46;0.20;99.90
6291;DHT22;3178;48.730;8.990;2022-12-10T17:30:15;0.10;99.90
6291;DHT22;3178;48.730;8.990;2022-12-10T17:32:42;0.20;99.90
6291;DHT22;3178;48.730;8.990;2022-12-10T17:35:09;0.20;99.90
6291;DHT22;3178;48.730;8.990;2022-12-10T17:37:36;0.10;99.90
6291;DHT22;3178;48.730;8.990;2022-12-10T17:40:06;0.10;99.90
6291;DHT22;3178;48.730;8.990;2022-12-10T17:42:35;0.20;99.90
6291;DHT22;3178;48.730;8.990;2022-12-10T17:45:01;0.10;99.90
6291;DHT22;3178;48.730;8.990;2022-12-10T17:47:26;0.20;99.90
6291;DHT22;3178;48.730;8.990;2022-12-10T17:49:53;0.20;99.90
6291;DHT22;3178;48.730;8.990;2022-12-10T17:52:19;0.20;99.90
6291;DHT22;3178;48.730;8.990;2022-12-10T17:54:44;0.20;99.90
6291;DHT22;3178;48.730;8.990;2022-12-10T17:57:14;0.20;99.90
6291;DHT22;3178;48.730;8.990;2022-12-10T17:59:40;0.20;99.90
6291;DHT22;3178;48.730;8.990;2022-12-10T18:02:09;0.20;99.90
6291;DHT22;3178;48.730;8.990;2022-12-10T18:04:36;0.20;99.90
6291;DHT22;3178;48.730;8.990;2022-12-10T18:07:01;0.20;99.90
6291;DHT22;3178;48.730;8.990;2022-12-10T18:09:27;0.30;99.90
6291;DHT22;3178;48.730;8.990;2022-12-10T18:11:52;0.30;99.90
6291;DHT22;3178;48.730;8.990;2022-12-10T18:14:19;0.20;99.90
6291;DHT22;3178;48.730;8.990;2022-12-10T18:16:44;0.30;99.90
6291;DHT22;3178;48.730;8.990;2022-12-10T18:19:13;0.20;99.90
6291;DHT22;3178;48.730;8.990;2022-12-10T18:21:40;0.30;99.90